createdAt,value
2022-10-04T00:00:08.046Z,98597.00
2022-10-04T00:00:18.308Z,98599.00
2022-10-04T00:00:28.434Z,98599.00
2022-10-04T00:00:38.540Z,98599.00
2022-10-04T00:00:48.663Z,98601.00
2022-10-04T00:00:58.779Z,98599.00
2022-10-04T00:01:08.897Z,98597.00
2022-10-04T00:01:19.082Z,98599.00
2022-10-04T00:01:29.138Z,98599.00
2022-10-04T00:01:39.303Z,98599.00
2022-10-04T00:01:49.226Z,98601.00
2022-10-04T00:01:59.286Z,98599.00
2022-10-04T00:02:09.353Z,98601.00
2022-10-04T00:02:19.371Z,98599.00
2022-10-04T00:02:29.421Z,98601.00
2022-10-04T00:02:39.506Z,98601.00
2022-10-04T00:02:49.555Z,98601.00
2022-10-04T00:02:59.641Z,98601.00
2022-10-04T00:03:09.753Z,98601.00
2022-10-04T00:03:19.841Z,98601.00
2022-10-04T00:03:29.834Z,98601.00
2022-10-04T00:03:39.957Z,98601.00
2022-10-04T00:03:50.077Z,98601.00
2022-10-04T00:04:00.106Z,98601.00
2022-10-04T00:04:10.202Z,98603.00
2022-10-04T00:04:20.317Z,98601.00
2022-10-04T00:04:30.437Z,98603.00
2022-10-04T00:04:40.437Z,98603.00
2022-10-04T00:04:50.553Z,98601.00
2022-10-04T00:05:00.669Z,98601.00
2022-10-04T00:05:10.794Z,98601.00
2022-10-04T00:05:20.927Z,98601.00
2022-10-04T00:05:31.062Z,98605.00
2022-10-04T00:05:41.167Z,98601.00
2022-10-04T00:05:51.298Z,98603.00
2022-10-04T00:06:01.281Z,98603.00
2022-10-04T00:06:11.530Z,98603.00
2022-10-04T00:06:21.648Z,98603.00
2022-10-04T00:06:31.765Z,98605.00
2022-10-04T00:06:41.897Z,98601.00
2022-10-04T00:06:52.017Z,98601.00
2022-10-04T00:07:02.011Z,98601.00
2022-10-04T00:07:12.270Z,98603.00
2022-10-04T00:07:22.380Z,98601.00
2022-10-04T00:07:32.383Z,98603.00
2022-10-04T00:07:42.633Z,98601.00
2022-10-04T00:07:52.749Z,98603.00
2022-10-04T00:08:02.754Z,98601.00
2022-10-04T00:08:13.001Z,98603.00
2022-10-04T00:08:23.117Z,98601.00
2022-10-04T00:08:33.232Z,98601.00
2022-10-04T00:08:43.357Z,98603.00
2022-10-04T00:08:53.358Z,98605.00
2022-10-04T00:09:03.376Z,98603.00
2022-10-04T00:09:13.821Z,98603.00
2022-10-04T00:09:23.791Z,98605.00
2022-10-04T00:09:33.914Z,98605.00
2022-10-04T00:09:44.173Z,98603.00
2022-10-04T00:09:54.287Z,98603.00
2022-10-04T00:10:04.406Z,98605.00
2022-10-04T00:10:14.525Z,98605.00
2022-10-04T00:10:24.639Z,98605.00
2022-10-04T00:10:34.759Z,98603.00
2022-10-04T00:10:44.897Z,98605.00
2022-10-04T00:10:54.893Z,98605.00
2022-10-04T00:11:05.008Z,98605.00
2022-10-04T00:11:15.275Z,98607.00
2022-10-04T00:11:25.264Z,98607.00
2022-10-04T00:11:35.381Z,98607.00
2022-10-04T00:11:45.640Z,98607.00
2022-10-04T00:11:55.755Z,98605.00
2022-10-04T00:12:05.894Z,98605.00
2022-10-04T00:12:16.009Z,98605.00
2022-10-04T00:12:26.122Z,98607.00
2022-10-04T00:12:36.244Z,98609.00
2022-10-04T00:12:46.368Z,98609.00
2022-10-04T00:12:56.367Z,98607.00
2022-10-04T00:13:06.481Z,98607.00
2022-10-04T00:13:16.731Z,98607.00
2022-10-04T00:13:26.871Z,98605.00
2022-10-04T00:13:36.963Z,98609.00
2022-10-04T00:13:47.087Z,98605.00
2022-10-04T00:13:57.230Z,98605.00
2022-10-04T00:14:07.225Z,98605.00
2022-10-04T00:14:17.473Z,98605.00
2022-10-04T00:14:27.590Z,98603.00
2022-10-04T00:14:37.720Z,98605.00
2022-10-04T00:14:47.841Z,98603.00
2022-10-04T00:14:57.959Z,98605.00
2022-10-04T00:15:08.078Z,98605.00
2022-10-04T00:15:18.207Z,98605.00
2022-10-04T00:15:28.332Z,98603.00
2022-10-04T00:15:38.437Z,98605.00
2022-10-04T00:15:48.601Z,98605.00
2022-10-04T00:15:58.651Z,98603.00
2022-10-04T00:16:08.713Z,98605.00
2022-10-04T00:16:18.774Z,98607.00
2022-10-04T00:16:28.905Z,98605.00
2022-10-04T00:16:38.976Z,98605.00
2022-10-04T00:16:48.799Z,98605.00
2022-10-04T00:16:58.919Z,98603.00
2022-10-04T00:17:09.042Z,98603.00
2022-10-04T00:17:19.159Z,98605.00
2022-10-04T00:17:29.165Z,98605.00
2022-10-04T00:17:39.279Z,98605.00
2022-10-04T00:17:49.397Z,98607.00
2022-10-04T00:17:59.522Z,98605.00
2022-10-04T00:18:09.642Z,98607.00
2022-10-04T00:18:19.641Z,98605.00
2022-10-04T00:18:29.890Z,98605.00
2022-10-04T00:18:39.886Z,98605.00
2022-10-04T00:18:50.010Z,98607.00
2022-10-04T00:19:00.261Z,98607.00
2022-10-04T00:19:10.379Z,98605.00
2022-10-04T00:19:20.493Z,98605.00
2022-10-04T00:19:30.622Z,98607.00
2022-10-04T00:19:40.741Z,98605.00
2022-10-04T00:19:50.851Z,98607.00
2022-10-04T00:20:00.972Z,98605.00
2022-10-04T00:20:11.092Z,98607.00
2022-10-04T00:20:21.209Z,98607.00
2022-10-04T00:20:31.343Z,98605.00
2022-10-04T00:20:41.362Z,98605.00
2022-10-04T00:20:51.455Z,98603.00
2022-10-04T00:21:01.719Z,98605.00
2022-10-04T00:21:11.835Z,98605.00
2022-10-04T00:21:21.835Z,98605.00
2022-10-04T00:21:32.092Z,98605.00
2022-10-04T00:21:42.450Z,98601.00
2022-10-04T00:21:52.183Z,98603.00
2022-10-04T00:22:02.555Z,98605.00
2022-10-04T00:22:12.697Z,98603.00
2022-10-04T00:22:22.676Z,98605.00
2022-10-04T00:22:32.932Z,98605.00
2022-10-04T00:22:42.932Z,98605.00
2022-10-04T00:22:52.930Z,98601.00
2022-10-04T00:23:03.307Z,98601.00
2022-10-04T00:23:13.435Z,98601.00
2022-10-04T00:23:23.556Z,98603.00
2022-10-04T00:23:33.672Z,98601.00
2022-10-04T00:23:43.797Z,98603.00
2022-10-04T00:23:53.789Z,98601.00
2022-10-04T00:24:04.049Z,98601.00
2022-10-04T00:24:14.166Z,98601.00
2022-10-04T00:24:24.163Z,98601.00
2022-10-04T00:24:34.437Z,98601.00
2022-10-04T00:24:44.413Z,98603.00
2022-10-04T00:24:54.541Z,98603.00
2022-10-04T00:25:04.804Z,98601.00
2022-10-04T00:25:14.914Z,98603.00
2022-10-04T00:25:24.914Z,98603.00
2022-10-04T00:25:35.166Z,98601.00
2022-10-04T00:25:45.283Z,98599.00
2022-10-04T00:25:55.408Z,98601.00
2022-10-04T00:26:05.527Z,98603.00
2022-10-04T00:26:15.647Z,98603.00
2022-10-04T00:26:25.760Z,98601.00
2022-10-04T00:26:35.881Z,98601.00
2022-10-04T00:26:45.996Z,98601.00
2022-10-04T00:26:56.111Z,98605.00
2022-10-04T00:27:06.235Z,98601.00
2022-10-04T00:27:16.361Z,98605.00
2022-10-04T00:27:26.353Z,98603.00
2022-10-04T00:27:36.601Z,98603.00
2022-10-04T00:27:46.714Z,98603.00
2022-10-04T00:27:56.871Z,98603.00
2022-10-04T00:28:07.038Z,98603.00
2022-10-04T00:28:17.088Z,98605.00
2022-10-04T00:28:27.115Z,98603.00
2022-10-04T00:28:37.095Z,98605.00
2022-10-04T00:28:47.103Z,98603.00
2022-10-04T00:28:57.219Z,98603.00
2022-10-04T00:29:07.337Z,98605.00
2022-10-04T00:29:17.340Z,98605.00
2022-10-04T00:29:27.351Z,98605.00
2022-10-04T00:29:37.457Z,98605.00
2022-10-04T00:29:47.577Z,98605.00
2022-10-04T00:29:57.700Z,98603.00
2022-10-04T00:30:07.696Z,98605.00
2022-10-04T00:30:17.825Z,98605.00
2022-10-04T00:30:27.815Z,98605.00
2022-10-04T00:30:37.940Z,98605.00
2022-10-04T00:30:48.195Z,98605.00
2022-10-04T00:30:58.342Z,98605.00
2022-10-04T00:31:08.391Z,98605.00
2022-10-04T00:31:18.794Z,98605.00
2022-10-04T00:31:28.835Z,98605.00
2022-10-04T00:31:38.987Z,98599.00
2022-10-04T00:31:49.167Z,98601.00
2022-10-04T00:31:59.149Z,98601.00
2022-10-04T00:32:09.147Z,98603.00
2022-10-04T00:32:19.524Z,98603.00
2022-10-04T00:32:29.518Z,98603.00
2022-10-04T00:32:39.639Z,98601.00
2022-10-04T00:32:49.895Z,98601.00
2022-10-04T00:33:00.019Z,98601.00
2022-10-04T00:33:10.012Z,98599.00
2022-10-04T00:33:20.262Z,98601.00
2022-10-04T00:33:30.376Z,98601.00
2022-10-04T00:33:40.497Z,98601.00
2022-10-04T00:33:50.615Z,98599.00
2022-10-04T00:34:00.745Z,98601.00
2022-10-04T00:34:10.731Z,98599.00
2022-10-04T00:34:21.002Z,98599.00
2022-10-04T00:34:31.123Z,98599.00
2022-10-04T00:34:41.117Z,98601.00
2022-10-04T00:34:51.374Z,98601.00
2022-10-04T00:35:01.494Z,98601.00
2022-10-04T00:35:11.609Z,98599.00
2022-10-04T00:35:21.731Z,98597.00
2022-10-04T00:35:31.731Z,98597.00
2022-10-04T00:35:41.855Z,98599.00
2022-10-04T00:35:52.124Z,98599.00
2022-10-04T00:36:02.219Z,98599.00
2022-10-04T00:36:12.219Z,98599.00
2022-10-04T00:36:22.498Z,98597.00
2022-10-04T00:36:32.606Z,98601.00
2022-10-04T00:36:42.727Z,98599.00
2022-10-04T00:36:52.853Z,98597.00
2022-10-04T00:37:02.972Z,98599.00
2022-10-04T00:37:12.969Z,98597.00
2022-10-04T00:37:23.219Z,98597.00
2022-10-04T00:37:33.223Z,98599.00
2022-10-04T00:37:43.345Z,98599.00
2022-10-04T00:37:53.595Z,98599.00
2022-10-04T00:38:03.708Z,98599.00
2022-10-04T00:38:13.823Z,98597.00
2022-10-04T00:38:23.957Z,98599.00
2022-10-04T00:38:33.961Z,98599.00
2022-10-04T00:38:44.078Z,98599.00
2022-10-04T00:38:54.337Z,98599.00
2022-10-04T00:39:04.456Z,98597.00
2022-10-04T00:39:14.570Z,98599.00
2022-10-04T00:39:24.693Z,98597.00
2022-10-04T00:39:34.807Z,98597.00
2022-10-04T00:39:44.928Z,98595.00
2022-10-04T00:39:55.048Z,98595.00
2022-10-04T00:40:05.168Z,98597.00
2022-10-04T00:40:15.283Z,98597.00
2022-10-04T00:40:25.413Z,98597.00
2022-10-04T00:40:35.409Z,98595.00
2022-10-04T00:40:45.532Z,98595.00
2022-10-04T00:40:55.795Z,98597.00
2022-10-04T00:41:05.832Z,98595.00
2022-10-04T00:41:15.949Z,98597.00
2022-10-04T00:41:26.200Z,98595.00
2022-10-04T00:41:36.195Z,98595.00
2022-10-04T00:41:46.314Z,98595.00
2022-10-04T00:41:56.562Z,98597.00
2022-10-04T00:42:06.682Z,98595.00
2022-10-04T00:42:16.795Z,98595.00
2022-10-04T00:42:26.926Z,98595.00
2022-10-04T00:42:36.917Z,98592.00
2022-10-04T00:42:47.039Z,98594.00
2022-10-04T00:42:57.291Z,98594.00
2022-10-04T00:43:07.409Z,98594.00
2022-10-04T00:43:17.525Z,98594.00
2022-10-04T00:43:27.651Z,98594.00
2022-10-04T00:43:37.651Z,98595.00
2022-10-04T00:43:47.769Z,98595.00
2022-10-04T00:43:58.017Z,98594.00
2022-10-04T00:44:08.139Z,98594.00
2022-10-04T00:44:18.255Z,98594.00
2022-10-04T00:44:28.379Z,98595.00
2022-10-04T00:44:38.494Z,98594.00
2022-10-04T00:44:48.613Z,98595.00
2022-10-04T00:44:58.748Z,98595.00
2022-10-04T00:45:08.738Z,98594.00
2022-10-04T00:45:18.855Z,98595.00
2022-10-04T00:45:29.102Z,98597.00
2022-10-04T00:45:39.218Z,98597.00
2022-10-04T00:45:49.359Z,98599.00
2022-10-04T00:45:59.539Z,98599.00
2022-10-04T00:46:09.599Z,98597.00
2022-10-04T00:46:19.714Z,98597.00
2022-10-04T00:46:29.654Z,98599.00
2022-10-04T00:46:39.678Z,98599.00
2022-10-04T00:46:49.797Z,98599.00
2022-10-04T00:46:59.913Z,98597.00
2022-10-04T00:47:10.047Z,98597.00
2022-10-04T00:47:20.037Z,98599.00
2022-10-04T00:47:30.155Z,98597.00
2022-10-04T00:47:40.276Z,98599.00
2022-10-04T00:47:50.392Z,98599.00
2022-10-04T00:48:00.510Z,98601.00
2022-10-04T00:48:10.632Z,98599.00
2022-10-04T00:48:20.749Z,98599.00
2022-10-04T00:48:31.714Z,98601.00
2022-10-04T00:48:40.988Z,98601.00
2022-10-04T00:48:51.113Z,98599.00
2022-10-04T00:49:01.109Z,98599.00
2022-10-04T00:49:11.236Z,98601.00
2022-10-04T00:49:21.231Z,98599.00
2022-10-04T00:49:31.351Z,98599.00
2022-10-04T00:49:41.465Z,98599.00
2022-10-04T00:49:51.586Z,98599.00
2022-10-04T00:50:01.589Z,98599.00
2022-10-04T00:50:11.706Z,98601.00
2022-10-04T00:50:21.704Z,98599.00
2022-10-04T00:50:31.824Z,98601.00
2022-10-04T00:50:41.820Z,98599.00
2022-10-04T00:50:52.070Z,98599.00
2022-10-04T00:51:02.092Z,98599.00
2022-10-04T00:51:12.069Z,98599.00
2022-10-04T00:51:22.071Z,98601.00
2022-10-04T00:51:32.075Z,98599.00
2022-10-04T00:51:42.525Z,98599.00
2022-10-04T00:51:52.240Z,98599.00
2022-10-04T00:52:02.361Z,98597.00
2022-10-04T00:52:12.479Z,98597.00
2022-10-04T00:52:22.601Z,98601.00
2022-10-04T00:52:32.601Z,98597.00
2022-10-04T00:52:42.718Z,98595.00
2022-10-04T00:52:52.721Z,98597.00
2022-10-04T00:53:02.842Z,98599.00
2022-10-04T00:53:12.962Z,98597.00
2022-10-04T00:53:23.078Z,98597.00
2022-10-04T00:53:33.208Z,98599.00
2022-10-04T00:53:43.322Z,98597.00
2022-10-04T00:53:53.439Z,98599.00
2022-10-04T00:54:03.570Z,98599.00
2022-10-04T00:54:13.693Z,98599.00
2022-10-04T00:54:23.698Z,98601.00
2022-10-04T00:54:33.949Z,98599.00
2022-10-04T00:54:43.946Z,98597.00
2022-10-04T00:54:54.063Z,98599.00
2022-10-04T00:55:04.322Z,98599.00
2022-10-04T00:55:14.313Z,98599.00
2022-10-04T00:55:24.428Z,98601.00
2022-10-04T00:55:34.676Z,98601.00
2022-10-04T00:55:44.679Z,98601.00
2022-10-04T00:55:54.800Z,98601.00
2022-10-04T00:56:05.058Z,98603.00
2022-10-04T00:56:15.178Z,98601.00
2022-10-04T00:56:25.180Z,98597.00
2022-10-04T00:56:35.425Z,98597.00
2022-10-04T00:56:45.550Z,98597.00
2022-10-04T00:56:55.546Z,98597.00
2022-10-04T00:57:05.812Z,98599.00
2022-10-04T00:57:15.927Z,98599.00
2022-10-04T00:57:26.045Z,98599.00
2022-10-04T00:57:36.177Z,98601.00
2022-10-04T00:57:46.296Z,98601.00
2022-10-04T00:57:56.410Z,98601.00
2022-10-04T00:58:06.535Z,98599.00
2022-10-04T00:58:16.534Z,98601.00
2022-10-04T00:58:26.665Z,98601.00
2022-10-04T00:58:36.919Z,98599.00
2022-10-04T00:58:46.976Z,98599.00
2022-10-04T00:58:56.972Z,98599.00
2022-10-04T00:59:07.359Z,98599.00
2022-10-04T00:59:17.350Z,98601.00
2022-10-04T00:59:27.468Z,98599.00
2022-10-04T00:59:37.712Z,98601.00
2022-10-04T00:59:47.830Z,98601.00
2022-10-04T00:59:57.949Z,98601.00
2022-10-04T01:00:08.587Z,98601.00
2022-10-04T01:00:18.094Z,98601.00
2022-10-04T01:00:28.201Z,98603.00
2022-10-04T01:00:38.631Z,98601.00
2022-10-04T01:00:48.629Z,98603.00
2022-10-04T01:00:58.751Z,98603.00
2022-10-04T01:01:08.669Z,98599.00
2022-10-04T01:01:18.744Z,98599.00
2022-10-04T01:01:28.800Z,98603.00
2022-10-04T01:01:38.865Z,98605.00
2022-10-04T01:01:48.957Z,98601.00
2022-10-04T01:01:58.935Z,98599.00
2022-10-04T01:02:09.007Z,98601.00
2022-10-04T01:02:19.243Z,98597.00
2022-10-04T01:02:29.295Z,98597.00
2022-10-04T01:02:39.359Z,98599.00
2022-10-04T01:02:49.390Z,98599.00
2022-10-04T01:02:59.401Z,98599.00
2022-10-04T01:03:09.395Z,98599.00
2022-10-04T01:03:19.510Z,98599.00
2022-10-04T01:03:29.632Z,98599.00
2022-10-04T01:03:39.650Z,98599.00
2022-10-04T01:03:49.644Z,98599.00
2022-10-04T01:03:59.769Z,98597.00
2022-10-04T01:04:09.889Z,98597.00
2022-10-04T01:04:20.007Z,98597.00
2022-10-04T01:04:30.129Z,98597.00
2022-10-04T01:04:40.245Z,98595.00
2022-10-04T01:04:50.364Z,98597.00
2022-10-04T01:05:00.493Z,98595.00
2022-10-04T01:05:10.602Z,98592.00
2022-10-04T01:05:20.716Z,98595.00
2022-10-04T01:05:30.839Z,98594.00
2022-10-04T01:05:40.954Z,98594.00
2022-10-04T01:05:51.079Z,98595.00
2022-10-04T01:06:01.203Z,98595.00
2022-10-04T01:06:11.347Z,98594.00
2022-10-04T01:06:21.438Z,98594.00
2022-10-04T01:06:31.566Z,98594.00
2022-10-04T01:06:41.681Z,98594.00
2022-10-04T01:06:51.802Z,98595.00
2022-10-04T01:07:01.924Z,98595.00
2022-10-04T01:07:12.044Z,98594.00
2022-10-04T01:07:22.159Z,98597.00
2022-10-04T01:07:32.282Z,98595.00
2022-10-04T01:07:42.398Z,98597.00
2022-10-04T01:07:52.516Z,98597.00
2022-10-04T01:08:02.639Z,98599.00
2022-10-04T01:08:12.768Z,98599.00
2022-10-04T01:08:22.881Z,98599.00
2022-10-04T01:08:33.007Z,98595.00
2022-10-04T01:08:43.130Z,98597.00
2022-10-04T01:08:53.122Z,98597.00
2022-10-04T01:09:03.380Z,98597.00
2022-10-04T01:09:13.497Z,98599.00
2022-10-04T01:09:23.616Z,98597.00
2022-10-04T01:09:33.751Z,98597.00
2022-10-04T01:09:43.855Z,98599.00
2022-10-04T01:09:53.980Z,98599.00
2022-10-04T01:10:04.094Z,98601.00
2022-10-04T01:10:14.213Z,98599.00
2022-10-04T01:10:24.331Z,98599.00
2022-10-04T01:10:34.457Z,98599.00
2022-10-04T01:10:44.593Z,98599.00
2022-10-04T01:10:54.584Z,98597.00
2022-10-04T01:11:04.835Z,98599.00
2022-10-04T01:11:14.827Z,98601.00
2022-10-04T01:11:24.950Z,98601.00
2022-10-04T01:11:35.194Z,98601.00
2022-10-04T01:11:45.308Z,98601.00
2022-10-04T01:11:55.426Z,98599.00
2022-10-04T01:12:05.552Z,98599.00
2022-10-04T01:12:15.665Z,98597.00
2022-10-04T01:12:25.779Z,98597.00
2022-10-04T01:12:35.903Z,98597.00
2022-10-04T01:12:45.902Z,98601.00
2022-10-04T01:12:56.020Z,98597.00
2022-10-04T01:13:06.267Z,98595.00
2022-10-04T01:13:16.395Z,98595.00
2022-10-04T01:13:26.514Z,98595.00
2022-10-04T01:13:36.643Z,98595.00
2022-10-04T01:13:46.764Z,98595.00
2022-10-04T01:13:56.881Z,98597.00
2022-10-04T01:14:07.018Z,98597.00
2022-10-04T01:14:17.133Z,98595.00
2022-10-04T01:14:27.248Z,98595.00
2022-10-04T01:14:37.371Z,98595.00
2022-10-04T01:14:47.484Z,98592.00
2022-10-04T01:14:57.602Z,98594.00
2022-10-04T01:15:07.737Z,98592.00
2022-10-04T01:15:17.848Z,98594.00
2022-10-04T01:15:27.965Z,98594.00
2022-10-04T01:15:38.156Z,98594.00
2022-10-04T01:15:48.288Z,98594.00
2022-10-04T01:15:58.225Z,98594.00
2022-10-04T01:16:08.266Z,98594.00
2022-10-04T01:16:18.386Z,98594.00
2022-10-04T01:16:28.443Z,98594.00
2022-10-04T01:16:38.486Z,98594.00
2022-10-04T01:16:48.501Z,98595.00
2022-10-04T01:16:58.496Z,98592.00
2022-10-04T01:17:08.494Z,98595.00
2022-10-04T01:17:18.748Z,98595.00
2022-10-04T01:17:28.746Z,98595.00
2022-10-04T01:17:38.867Z,98594.00
2022-10-04T01:17:49.115Z,98597.00
2022-10-04T01:18:01.887Z,98595.00
2022-10-04T01:18:09.737Z,98597.00
2022-10-04T01:18:19.375Z,98595.00
2022-10-04T01:18:29.383Z,98594.00
2022-10-04T01:18:39.389Z,98597.00
2022-10-04T01:18:49.402Z,98597.00
2022-10-04T01:18:59.406Z,98597.00
2022-10-04T01:19:09.528Z,98595.00
2022-10-04T01:19:19.645Z,98595.00
2022-10-04T01:19:29.763Z,98599.00
2022-10-04T01:19:39.889Z,98595.00
2022-10-04T01:19:49.999Z,98595.00
2022-10-04T01:19:59.998Z,98597.00
2022-10-04T01:20:10.251Z,98595.00
2022-10-04T01:20:20.369Z,98599.00
2022-10-04T01:20:30.482Z,98595.00
2022-10-04T01:20:40.607Z,98597.00
2022-10-04T01:20:50.721Z,98597.00
2022-10-04T01:21:00.846Z,98595.00
2022-10-04T01:21:10.960Z,98594.00
2022-10-04T01:21:21.101Z,98594.00
2022-10-04T01:21:31.194Z,98595.00
2022-10-04T01:21:41.545Z,98594.00
2022-10-04T01:21:51.353Z,98595.00
2022-10-04T01:22:01.344Z,98595.00
2022-10-04T01:22:11.347Z,98592.00
2022-10-04T01:22:21.466Z,98594.00
2022-10-04T01:22:31.583Z,98594.00
2022-10-04T01:22:41.699Z,98595.00
2022-10-04T01:22:51.820Z,98595.00
2022-10-04T01:23:01.940Z,98594.00
2022-10-04T01:23:11.952Z,98592.00
2022-10-04T01:23:21.945Z,98594.00
2022-10-04T01:23:32.064Z,98594.00
2022-10-04T01:23:42.063Z,98595.00
2022-10-04T01:23:52.071Z,98592.00
2022-10-04T01:24:02.195Z,98592.00
2022-10-04T01:24:12.197Z,98592.00
2022-10-04T01:24:22.458Z,98592.00
2022-10-04T01:24:32.448Z,98595.00
2022-10-04T01:24:42.568Z,98592.00
2022-10-04T01:24:52.826Z,98592.00
2022-10-04T01:25:02.947Z,98592.00
2022-10-04T01:25:13.077Z,98590.00
2022-10-04T01:25:23.207Z,98592.00
2022-10-04T01:25:33.204Z,98592.00
2022-10-04T01:25:43.329Z,98594.00
2022-10-04T01:25:53.583Z,98592.00
2022-10-04T01:26:03.699Z,98592.00
2022-10-04T01:26:13.816Z,98592.00
2022-10-04T01:26:23.952Z,98594.00
2022-10-04T01:26:33.951Z,98595.00
2022-10-04T01:26:44.069Z,98592.00
2022-10-04T01:26:54.333Z,98590.00
2022-10-04T01:27:04.450Z,98592.00
2022-10-04T01:27:14.567Z,98590.00
2022-10-04T01:27:24.689Z,98590.00
2022-10-04T01:27:34.693Z,98592.00
2022-10-04T01:27:44.806Z,98590.00
2022-10-04T01:27:55.150Z,98590.00
2022-10-04T01:28:05.167Z,98590.00
2022-10-04T01:28:15.268Z,98590.00
2022-10-04T01:28:25.391Z,98590.00
2022-10-04T01:28:35.529Z,98588.00
2022-10-04T01:28:45.459Z,98588.00
2022-10-04T01:28:55.574Z,98588.00
2022-10-04T01:29:05.590Z,98588.00
2022-10-04T01:29:15.579Z,98588.00
2022-10-04T01:29:25.723Z,98588.00
2022-10-04T01:29:35.853Z,98586.00
2022-10-04T01:29:45.971Z,98588.00
2022-10-04T01:29:56.086Z,98586.00
2022-10-04T01:30:06.211Z,98586.00
2022-10-04T01:30:16.210Z,98586.00
2022-10-04T01:30:26.327Z,98586.00
2022-10-04T01:30:36.585Z,98584.00
2022-10-04T01:30:46.706Z,98586.00
2022-10-04T01:30:56.889Z,98584.00
2022-10-04T01:31:07.059Z,98580.00
2022-10-04T01:31:17.135Z,98584.00
2022-10-04T01:31:27.135Z,98584.00
2022-10-04T01:31:37.594Z,98580.00
2022-10-04T01:31:47.563Z,98582.00
2022-10-04T01:31:57.649Z,98580.00
2022-10-04T01:32:07.894Z,98580.00
2022-10-04T01:32:17.880Z,98586.00
2022-10-04T01:32:27.995Z,98580.00
2022-10-04T01:32:38.242Z,98580.00
2022-10-04T01:32:48.366Z,98582.00
2022-10-04T01:32:58.360Z,98582.00
2022-10-04T01:33:08.619Z,98582.00
2022-10-04T01:33:18.617Z,98582.00
2022-10-04T01:33:28.735Z,98582.00
2022-10-04T01:33:38.985Z,98582.00
2022-10-04T01:33:49.099Z,98582.00
2022-10-04T01:33:59.217Z,98582.00
2022-10-04T01:34:09.341Z,98582.00
2022-10-04T01:34:19.456Z,98576.00
2022-10-04T01:34:29.582Z,98584.00
2022-10-04T01:34:39.714Z,98580.00
2022-10-04T01:34:49.826Z,98578.00
2022-10-04T01:34:59.939Z,98578.00
2022-10-04T01:35:10.065Z,98576.00
2022-10-04T01:35:20.181Z,98578.00
2022-10-04T01:35:30.302Z,98578.00
2022-10-04T01:35:40.423Z,98578.00
2022-10-04T01:35:50.544Z,98578.00
2022-10-04T01:36:00.663Z,98578.00
2022-10-04T01:36:10.788Z,98578.00
2022-10-04T01:36:20.903Z,98578.00
2022-10-04T01:36:31.049Z,98578.00
2022-10-04T01:36:41.145Z,98578.00
2022-10-04T01:36:51.263Z,98578.00
2022-10-04T01:37:01.380Z,98580.00
2022-10-04T01:37:11.504Z,98578.00
2022-10-04T01:37:21.618Z,98578.00
2022-10-04T01:37:31.737Z,98578.00
2022-10-04T01:37:41.905Z,98578.00
2022-10-04T01:37:51.872Z,98576.00
2022-10-04T01:38:01.988Z,98574.00
2022-10-04T01:38:12.237Z,98578.00
2022-10-04T01:38:22.359Z,98578.00
2022-10-04T01:38:32.364Z,98576.00
2022-10-04T01:38:42.625Z,98576.00
2022-10-04T01:38:52.748Z,98576.00
2022-10-04T01:39:02.865Z,98576.00
2022-10-04T01:39:12.987Z,98574.00
2022-10-04T01:39:23.103Z,98574.00
2022-10-04T01:39:33.232Z,98574.00
2022-10-04T01:39:43.358Z,98574.00
2022-10-04T01:39:53.479Z,98576.00
2022-10-04T01:40:03.477Z,98572.00
2022-10-04T01:40:13.736Z,98570.00
2022-10-04T01:40:23.735Z,98572.00
2022-10-04T01:40:33.853Z,98570.00
2022-10-04T01:40:44.100Z,98570.00
2022-10-04T01:40:54.220Z,98570.00
2022-10-04T01:41:04.334Z,98568.00
2022-10-04T01:41:14.460Z,98570.00
2022-10-04T01:41:24.573Z,98568.00
2022-10-04T01:41:34.690Z,98568.00
2022-10-04T01:41:44.811Z,98564.00
2022-10-04T01:41:54.930Z,98566.00
2022-10-04T01:42:04.932Z,98566.00
2022-10-04T01:42:15.191Z,98566.00
2022-10-04T01:42:25.303Z,98568.00
2022-10-04T01:42:35.429Z,98566.00
2022-10-04T01:42:45.539Z,98566.00
2022-10-04T01:42:55.664Z,98568.00
2022-10-04T01:43:05.661Z,98564.00
2022-10-04T01:43:15.908Z,98566.00
2022-10-04T01:43:26.024Z,98566.00
2022-10-04T01:43:36.143Z,98560.00
2022-10-04T01:43:46.276Z,98564.00
2022-10-04T01:43:56.285Z,98566.00
2022-10-04T01:44:06.278Z,98560.00
2022-10-04T01:44:16.285Z,98562.00
2022-10-04T01:44:26.284Z,98560.00
2022-10-04T01:44:36.406Z,98560.00
2022-10-04T01:44:46.526Z,98562.00
2022-10-04T01:44:56.526Z,98560.00
2022-10-04T01:45:06.646Z,98562.00
2022-10-04T01:45:16.677Z,98560.00
2022-10-04T01:45:26.780Z,98560.00
2022-10-04T01:45:36.777Z,98562.00
2022-10-04T01:45:46.895Z,98562.00
2022-10-04T01:45:57.084Z,98562.00
2022-10-04T01:46:07.105Z,98560.00
2022-10-04T01:46:17.200Z,98562.00
2022-10-04T01:46:27.514Z,98562.00
2022-10-04T01:46:37.780Z,98564.00
2022-10-04T01:46:47.631Z,98562.00
2022-10-04T01:46:57.638Z,98564.00
2022-10-04T01:47:07.748Z,98560.00
2022-10-04T01:47:17.867Z,98562.00
2022-10-04T01:47:27.985Z,98562.00
2022-10-04T01:47:38.104Z,98562.00
2022-10-04T01:47:48.226Z,98562.00
2022-10-04T01:47:58.341Z,98564.00
2022-10-04T01:48:08.341Z,98564.00
2022-10-04T01:48:18.457Z,98558.00
2022-10-04T01:48:28.577Z,98560.00
2022-10-04T01:48:38.598Z,98564.00
2022-10-04T01:48:48.587Z,98560.00
2022-10-04T01:48:58.704Z,98564.00
2022-10-04T01:49:08.826Z,98560.00
2022-10-04T01:49:18.942Z,98564.00
2022-10-04T01:49:29.058Z,98560.00
2022-10-04T01:49:39.076Z,98562.00
2022-10-04T01:49:49.193Z,98562.00
2022-10-04T01:49:59.198Z,98560.00
2022-10-04T01:50:13.578Z,98560.00
2022-10-04T01:50:19.441Z,98562.00
2022-10-04T01:50:29.570Z,98562.00
2022-10-04T01:50:39.570Z,98560.00
2022-10-04T01:50:49.695Z,98560.00
2022-10-04T01:50:59.831Z,98560.00
2022-10-04T01:51:09.833Z,98558.00
2022-10-04T01:51:19.947Z,98558.00
2022-10-04T01:51:30.065Z,98558.00
2022-10-04T01:51:40.489Z,98558.00
2022-10-04T01:51:50.119Z,98558.00
2022-10-04T01:52:00.235Z,98558.00
2022-10-04T01:52:10.354Z,98562.00
2022-10-04T01:52:20.469Z,98560.00
2022-10-04T01:52:30.583Z,98560.00
2022-10-04T01:52:40.702Z,98558.00
2022-10-04T01:52:50.824Z,98558.00
2022-10-04T01:53:00.856Z,98560.00
2022-10-04T01:53:11.100Z,98556.00
2022-10-04T01:53:21.214Z,98560.00
2022-10-04T01:53:31.330Z,98560.00
2022-10-04T01:53:41.452Z,98556.00
2022-10-04T01:53:51.568Z,98556.00
2022-10-04T01:54:01.576Z,98560.00
2022-10-04T01:54:11.823Z,98560.00
2022-10-04T01:54:21.937Z,98558.00
2022-10-04T01:54:32.059Z,98558.00
2022-10-04T01:54:42.180Z,98558.00
2022-10-04T01:54:52.334Z,98558.00
2022-10-04T01:55:02.325Z,98560.00
2022-10-04T01:55:12.574Z,98560.00
2022-10-04T01:55:22.573Z,98560.00
2022-10-04T01:55:32.693Z,98558.00
2022-10-04T01:55:42.939Z,98560.00
2022-10-04T01:55:52.939Z,98560.00
2022-10-04T01:56:03.065Z,98558.00
2022-10-04T01:56:13.313Z,98558.00
2022-10-04T01:56:23.430Z,98558.00
2022-10-04T01:56:33.546Z,98556.00
2022-10-04T01:56:43.665Z,98558.00
2022-10-04T01:56:53.789Z,98558.00
2022-10-04T01:57:03.904Z,98558.00
2022-10-04T01:57:14.028Z,98558.00
2022-10-04T01:57:24.143Z,98560.00
2022-10-04T01:57:34.261Z,98556.00
2022-10-04T01:57:44.387Z,98556.00
2022-10-04T01:57:54.387Z,98560.00
2022-10-04T01:58:04.383Z,98558.00
2022-10-04T01:58:14.401Z,98558.00
2022-10-04T01:58:24.398Z,98560.00
2022-10-04T01:58:34.515Z,98560.00
2022-10-04T01:58:44.630Z,98562.00